Time;durP1;ratioP1;P1;durP2;ratioP2;P2;SDS_P1;SDS_P2;PMS_P1;PMS_P2;Temp;Humidity;BMP_temperature;BMP_pressure;BME280_temperature;BME280_humidity;BME280_pressure;Samples;Min_cycle;Max_cycle;Signal;HPM_P1;HPM_P2
2021/12/06 00:01:07;;;;;;;91.43;45.10;;;;;;;4.63;100.00;93761.13;5088349;28;20211;-78
2021/12/06 00:03:40;;;;;;;110.07;49.87;;;;;;;4.62;100.00;93754.38;5088333;28;20228;-79
2021/12/06 00:06:09;;;;;;;118.27;54.33;;;;;;;4.62;100.00;93749.25;5081841;28;20261;-78
2021/12/06 00:08:39;;;;;;;114.33;55.17;;;;;;;4.55;100.00;93758.78;5084452;28;20607;-77
2021/12/06 00:11:09;;;;;;;127.47;59.73;;;;;;;4.56;100.00;93745.72;5082080;28;20206;-78
2021/12/06 00:13:40;;;;;;;145.90;67.17;;;;;;;4.51;100.00;93744.75;5085517;28;20277;-77
2021/12/06 00:16:15;;;;;;;149.63;68.00;;;;;;;4.52;100.00;93738.63;5082388;28;20265;-78
2021/12/06 00:18:44;;;;;;;133.57;65.90;;;;;;;4.62;100.00;93749.25;5083072;28;20196;-78
2021/12/06 00:21:13;;;;;;;138.03;63.10;;;;;;;4.54;100.00;93745.13;5088659;28;20201;-78
2021/12/06 00:23:42;;;;;;;118.93;57.07;;;;;;;4.53;100.00;93746.13;5088154;28;20246;-79
2021/12/06 00:26:11;;;;;;;121.87;56.53;;;;;;;4.47;100.00;93741.78;5088048;28;20279;-77
2021/12/06 00:28:43;;;;;;;127.33;58.30;;;;;;;4.45;100.00;93774.63;5087968;28;20197;-77
2021/12/06 00:31:17;;;;;;;132.87;57.13;;;;;;;4.35;100.00;93771.72;5084709;28;20293;-77
2021/12/06 00:33:52;;;;;;;104.63;48.50;;;;;;;4.22;100.00;93792.28;5087808;28;20197;-77
2021/12/06 00:36:27;;;;;;;100.67;48.17;;;;;;;4.19;100.00;93789.31;5088061;28;20204;-77
2021/12/06 00:38:57;;;;;;;100.07;46.67;;;;;;;4.27;100.00;93784.75;5087131;28;20206;-77
2021/12/06 00:41:25;;;;;;;102.60;47.90;;;;;;;4.19;100.00;93774.69;5082695;28;20205;-77
2021/12/06 00:43:53;;;;;;;111.30;49.23;;;;;;;4.26;100.00;93754.13;5088526;28;20201;-81
2021/12/06 00:46:23;;;;;;;100.40;48.87;;;;;;;4.23;100.00;93790.50;5089707;28;20207;-80
2021/12/06 00:48:53;;;;;;;104.37;49.13;;;;;;;4.25;100.00;93775.66;5089329;28;20605;-81
2021/12/06 00:51:21;;;;;;;105.40;50.87;;;;;;;4.24;100.00;93777.44;5089841;28;20231;-80
2021/12/06 00:53:50;;;;;;;105.63;47.87;;;;;;;4.19;100.00;93794.47;5088431;28;20228;-80
2021/12/06 00:56:19;;;;;;;90.80;43.40;;;;;;;4.15;100.00;93776.09;5089819;28;20270;-80
2021/12/06 00:58:49;;;;;;;87.87;41.90;;;;;;;4.15;100.00;93765.03;5091397;28;20201;-80
2021/12/06 01:01:17;;;;;;;91.60;42.10;;;;;;;4.25;100.00;93768.75;5091974;28;20285;-78
2021/12/06 01:03:47;;;;;;;88.13;41.97;;;;;;;4.30;100.00;93753.50;5090672;28;20201;-77
2021/12/06 01:06:16;;;;;;;88.23;41.97;;;;;;;4.30;100.00;93763.78;5085699;28;20239;-78
2021/12/06 01:08:46;;;;;;;75.47;35.10;;;;;;;4.07;100.00;93775.53;5091323;28;20254;-78
2021/12/06 01:11:14;;;;;;;64.00;31.77;;;;;;;3.97;100.00;93763.06;5092090;28;20221;-78
2021/12/06 01:13:44;;;;;;;68.00;32.93;;;;;;;4.03;100.00;93784.59;5090987;28;20212;-78
2021/12/06 01:16:13;;;;;;;71.20;35.50;;;;;;;3.94;100.00;93763.47;5091796;28;20295;-78
2021/12/06 01:18:42;;;;;;;80.03;36.33;;;;;;;4.01;100.00;93761.69;5091302;28;20204;-78
2021/12/06 01:21:18;;;;;;;77.53;38.43;;;;;;;4.08;100.00;93764.22;5091499;28;20220;-78
2021/12/06 01:23:54;;;;;;;85.13;39.07;;;;;;;4.09;100.00;93753.75;5090724;28;20192;-78
2021/12/06 01:26:43;;;;;;;81.50;38.67;;;;;;;4.11;100.00;93749.19;5091773;28;20229;-77
2021/12/06 01:32:03;;;;;;;92.43;40.73;;;;;;;4.09;100.00;93761.47;5089617;28;20269;-79
2021/12/06 01:40:02;;;;;;;70.27;33.23;;;;;;;4.05;100.00;93752.56;5090754;28;20231;-78
2021/12/06 01:42:32;;;;;;;65.43;31.03;;;;;;;3.99;100.00;93743.09;5091030;28;20212;-79
2021/12/06 01:45:01;;;;;;;62.60;30.37;;;;;;;4.00;100.00;93744.69;5089012;28;20205;-79
2021/12/06 01:47:32;;;;;;;58.70;30.90;;;;;;;3.99;100.00;93743.09;5087489;28;20261;-77
2021/12/06 01:50:04;;;;;;;70.53;33.37;;;;;;;4.05;100.00;93736.34;5090983;28;20322;-77
2021/12/06 01:52:38;;;;;;;69.87;32.77;;;;;;;4.06;100.00;93732.81;5090446;28;20309;-78
2021/12/06 01:55:09;;;;;;;84.50;37.83;;;;;;;4.07;100.00;93724.88;5090641;28;20258;-78
2021/12/06 01:57:38;;;;;;;74.63;35.00;;;;;;;4.03;100.00;93723.72;5091018;28;20664;-78
2021/12/06 02:00:09;;;;;;;72.57;34.23;;;;;;;4.03;100.00;93697.22;5089378;28;20584;-79
2021/12/06 02:02:37;;;;;;;66.17;32.03;;;;;;;4.14;100.00;93712.81;5090034;28;20279;-78
2021/12/06 02:05:06;;;;;;;72.07;34.27;;;;;;;4.14;100.00;93715.38;5090793;28;20235;-79
2021/12/06 02:07:37;;;;;;;77.60;34.70;;;;;;;4.15;100.00;93709.25;5091209;28;20874;-79
2021/12/06 02:10:06;;;;;;;68.50;32.83;;;;;;;4.20;100.00;93706.88;5090901;28;20562;-78
2021/12/06 02:12:35;;;;;;;76.47;34.00;;;;;;;4.27;100.00;93712.00;5089121;28;20197;-77
2021/12/06 02:15:07;;;;;;;77.13;37.03;;;;;;;4.19;100.00;93707.06;5089218;28;20205;-78
2021/12/06 02:17:42;;;;;;;72.10;34.77;;;;;;;4.19;100.00;93727.63;5090048;28;20243;-78
2021/12/06 02:20:16;;;;;;;76.43;36.70;;;;;;;4.01;100.00;93733.41;5084455;28;20227;-78
2021/12/06 02:22:46;;;;;;;68.17;34.10;;;;;;;3.92;100.00;93721.78;5089417;28;20257;-78
2021/12/06 02:25:18;;;;;;;63.33;31.83;;;;;;;3.93;100.00;93728.47;5090197;28;20277;-79
2021/12/06 02:27:50;;;;;;;61.23;26.93;;;;;;;3.93;100.00;93724.13;5089862;28;20198;-78
2021/12/06 02:30:19;;;;;;;63.53;28.10;;;;;;;3.92;100.00;93720.00;5088386;28;20192;-77
2021/12/06 02:32:51;;;;;;;64.87;28.43;;;;;;;3.91;100.00;93720.97;5090815;28;20231;-81
2021/12/06 02:35:22;;;;;;;55.17;26.33;;;;;;;3.92;100.00;93717.44;5090075;28;20200;-81
2021/12/06 02:37:54;;;;;;;56.80;26.67;;;;;;;4.09;100.00;93712.63;5091034;28;20209;-79
2021/12/06 02:40:30;;;;;;;57.20;27.70;;;;;;;4.05;100.00;93692.66;5092551;28;20711;-82
2021/12/06 02:43:15;;;;;;;55.57;26.67;;;;;;;4.20;100.00;93704.31;5093103;28;20720;-82
2021/12/06 02:45:44;;;;;;;54.13;27.23;;;;;;;4.16;100.00;93699.75;5092395;28;20204;-83
2021/12/06 02:48:15;;;;;;;57.47;27.37;;;;;;;4.22;100.00;93699.72;5092563;28;20204;-82
2021/12/06 02:50:49;;;;;;;57.20;26.23;;;;;;;4.28;100.00;93705.84;5091118;28;20204;-81
2021/12/06 02:53:19;;;;;;;54.80;27.10;;;;;;;4.31;100.00;93703.66;5089241;28;20779;-83
2021/12/06 02:56:05;;;;;;;50.20;26.40;;;;;;;4.32;100.00;93714.75;5087278;28;20663;-84
2021/12/06 02:58:56;;;;;;;50.53;25.20;;;;;;;4.24;100.00;93699.56;5089961;28;20203;-82
2021/12/06 03:01:31;;;;;;;53.20;26.23;;;;;;;4.24;100.00;93696.97;5090202;28;20225;-81
2021/12/06 03:04:03;;;;;;;49.90;25.97;;;;;;;4.30;100.00;93709.78;5087494;28;21006;-81
2021/12/06 03:06:31;;;;;;;50.73;26.53;;;;;;;4.36;100.00;93706.41;5091009;28;20514;-81
2021/12/06 03:09:07;;;;;;;56.37;27.10;;;;;;;4.38;100.00;93694.16;5091277;28;20201;-81
2021/12/06 03:11:39;;;;;;;58.67;28.03;;;;;;;4.47;100.00;93705.00;5090770;28;20212;-82
2021/12/06 03:14:12;;;;;;;61.03;28.80;;;;;;;4.57;100.00;93710.50;5090797;28;20211;-81
2021/12/06 03:16:43;;;;;;;56.30;27.67;;;;;;;4.62;100.00;93702.19;5085005;28;20205;-82
2021/12/06 03:19:12;;;;;;;56.60;28.57;;;;;;;4.58;100.00;93715.44;5090845;28;20276;-82
2021/12/06 03:21:41;;;;;;;58.37;29.63;;;;;;;4.50;100.00;93705.38;5090641;28;20216;-82
2021/12/06 03:24:11;;;;;;;61.77;28.77;;;;;;;4.56;100.00;93701.19;5091573;28;20215;-82
2021/12/06 03:26:41;;;;;;;62.80;29.23;;;;;;;4.66;100.00;93716.19;5091114;28;20205;-82
2021/12/06 03:29:15;;;;;;;59.17;29.10;;;;;;;4.69;100.00;93713.22;5088514;28;20197;-82
2021/12/06 03:32:01;;;;;;;56.17;27.63;;;;;;;4.69;100.00;93700.34;5085394;28;20200;-83
2021/12/06 03:34:29;;;;;;;56.50;27.77;;;;;;;4.67;100.00;93699.78;5090980;28;20672;-83
2021/12/06 03:37:01;;;;;;;57.07;27.97;;;;;;;4.59;100.00;93704.13;5091115;28;20200;-82
2021/12/06 03:39:34;;;;;;;50.90;26.33;;;;;;;4.57;100.00;93689.91;5090110;28;20197;-82
2021/12/06 03:42:07;;;;;;;54.03;26.03;;;;;;;4.59;100.00;93687.91;5090250;28;20220;-82
2021/12/06 03:44:35;;;;;;;54.37;27.43;;;;;;;4.64;100.00;93680.38;5090808;28;20284;-83
2021/12/06 03:47:13;;;;;;;53.27;26.57;;;;;;;4.53;100.00;93689.53;5090743;28;20201;-81
2021/12/06 03:49:43;;;;;;;50.17;24.50;;;;;;;4.51;100.00;93706.16;5084573;28;20214;-81
2021/12/06 03:52:13;;;;;;;49.37;24.80;;;;;;;4.38;100.00;93683.88;5087874;28;20201;-79
2021/12/06 03:54:44;;;;;;;49.93;24.10;;;;;;;4.50;100.00;93705.38;5084109;28;20324;-79
2021/12/06 03:57:15;;;;;;;50.67;25.77;;;;;;;4.62;100.00;93679.78;5089837;28;20232;-80
2021/12/06 03:59:49;;;;;;;48.37;24.90;;;;;;;4.62;100.00;93687.50;5090494;28;20307;-80
2021/12/06 04:02:16;;;;;;;51.43;24.10;;;;;;;4.43;100.00;93676.31;5090417;28;20232;-82
2021/12/06 04:04:48;;;;;;;47.67;24.00;;;;;;;4.50;100.00;93689.16;5090463;28;20230;-82
2021/12/06 04:07:17;;;;;;;45.27;24.53;;;;;;;4.47;100.00;93687.75;5090155;28;20204;-82
2021/12/06 04:09:49;;;;;;;50.30;24.70;;;;;;;4.59;100.00;93698.19;5090481;28;20211;-84
2021/12/06 04:12:17;;;;;;;52.37;25.43;;;;;;;4.62;100.00;93689.31;5087692;28;20643;-72
2021/12/06 04:14:47;;;;;;;49.30;25.37;;;;;;;4.72;100.00;93697.38;5088664;28;20200;-72
2021/12/06 04:17:16;;;;;;;50.90;25.53;;;;;;;4.78;100.00;93696.53;5087734;28;20200;-73
2021/12/06 04:19:45;;;;;;;49.17;25.77;;;;;;;4.81;100.00;93702.06;5088235;28;20668;-73
2021/12/06 04:22:14;;;;;;;50.50;26.97;;;;;;;4.86;100.00;93706.59;5087143;28;20220;-72
2021/12/06 04:24:44;;;;;;;51.43;25.73;;;;;;;4.77;100.00;93694.94;5087913;28;20295;-71
2021/12/06 04:27:15;;;;;;;50.53;25.77;;;;;;;4.79;100.00;93692.97;5086713;28;20211;-71
2021/12/06 04:29:45;;;;;;;52.03;26.43;;;;;;;4.81;100.00;93707.22;5084642;28;20205;-71
2021/12/06 04:32:14;;;;;;;61.60;29.43;;;;;;;4.77;100.00;93700.09;5090774;28;20197;-71
2021/12/06 04:34:42;;;;;;;113.50;54.00;;;;;;;4.64;100.00;93703.53;5089819;28;20629;-71
2021/12/06 04:37:10;;;;;;;116.70;57.80;;;;;;;4.56;100.00;93694.25;5091439;28;20311;-71
2021/12/06 04:39:40;;;;;;;122.77;59.23;;;;;;;4.64;100.00;93684.75;5090308;28;20227;-72
2021/12/06 04:42:07;;;;;;;118.50;59.13;;;;;;;4.71;100.00;93696.56;5090906;28;20232;-71
2021/12/06 04:44:37;;;;;;;129.73;61.83;;;;;;;4.78;100.00;93697.34;5091836;28;20205;-71
2021/12/06 04:47:05;;;;;;;123.50;58.40;;;;;;;4.79;100.00;93691.19;5091144;28;20212;-71
2021/12/06 04:49:34;;;;;;;122.97;59.07;;;;;;;4.88;100.00;93697.66;5091674;28;20493;-71
2021/12/06 04:52:07;;;;;;;125.93;60.93;;;;;;;4.86;100.00;93696.28;5091345;28;20202;-71
2021/12/06 04:54:40;;;;;;;112.07;54.80;;;;;;;4.83;100.00;93691.56;5091101;28;20658;-71
2021/12/06 04:57:13;;;;;;;109.50;53.20;;;;;;;4.86;100.00;93686.78;5079391;28;20203;-71
2021/12/06 04:59:49;;;;;;;84.60;42.93;;;;;;;4.77;100.00;93688.03;5089580;28;20201;-73
2021/12/06 05:02:23;;;;;;;72.37;36.50;;;;;;;4.75;100.00;93702.91;5085742;28;20221;-71
2021/12/06 05:04:56;;;;;;;64.00;31.87;;;;;;;4.65;100.00;93694.81;5090989;28;20196;-70
2021/12/06 05:07:30;;;;;;;68.97;32.07;;;;;;;4.67;100.00;93700.56;5091711;28;20193;-71
2021/12/06 05:09:59;;;;;;;68.70;34.23;;;;;;;4.62;100.00;93679.03;5091977;28;20257;-72
2021/12/06 05:12:30;;;;;;;99.13;47.97;;;;;;;4.71;100.00;93682.91;5092031;28;20205;-71
2021/12/06 05:15:00;;;;;;;92.13;45.27;;;;;;;4.78;100.00;93689.63;5091963;28;20257;-71
2021/12/06 05:17:31;;;;;;;93.90;44.67;;;;;;;4.82;100.00;93708.78;5091999;28;20573;-72
2021/12/06 05:19:59;;;;;;;79.63;39.83;;;;;;;4.82;100.00;93710.59;5092455;28;20243;-74
2021/12/06 05:22:29;;;;;;;80.43;40.33;;;;;;;4.82;100.00;93716.50;5091844;28;20221;-72
2021/12/06 05:24:58;;;;;;;61.90;32.50;;;;;;;4.82;100.00;93716.50;5092058;28;20307;-74
2021/12/06 05:27:29;;;;;;;63.70;32.60;;;;;;;4.90;100.00;93715.50;5091961;28;20239;-74
2021/12/06 05:30:03;;;;;;;59.27;28.00;;;;;;;4.88;100.00;93713.09;5091656;28;20321;-73
2021/12/06 05:32:34;;;;;;;55.50;26.80;;;;;;;4.83;100.00;93720.66;5089610;28;20266;-71
2021/12/06 05:35:08;;;;;;;54.40;28.50;;;;;;;4.82;100.00;93701.06;5092065;28;20588;-71
2021/12/06 05:37:38;;;;;;;59.60;29.93;;;;;;;4.86;100.00;93704.00;5092139;28;20627;-72
2021/12/06 05:40:09;;;;;;;58.47;30.80;;;;;;;4.89;100.00;93701.03;5090269;28;20197;-71
2021/12/06 05:42:39;;;;;;;57.30;28.93;;;;;;;4.95;100.00;93702.78;5089084;28;20211;-72
2021/12/06 05:45:21;;;;;;;49.73;26.97;;;;;;;4.97;100.00;93713.66;5089861;28;20201;-71
2021/12/06 05:47:51;;;;;;;51.97;25.70;;;;;;;4.92;100.00;93718.63;5090032;28;20272;-72
2021/12/06 05:50:19;;;;;;;53.03;27.60;;;;;;;5.00;100.00;93716.59;5090239;28;20691;-71
2021/12/06 05:52:49;;;;;;;54.43;28.53;;;;;;;5.09;100.00;93693.97;5089526;28;20193;-71
2021/12/06 05:55:17;;;;;;;61.27;30.23;;;;;;;5.13;100.00;93703.66;5090427;28;20204;-72
2021/12/06 05:57:45;;;;;;;55.33;29.53;;;;;;;5.24;100.00;93694.47;5089299;28;20911;-70
2021/12/06 06:00:20;;;;;;;57.80;30.13;;;;;;;5.30;100.00;93698.00;5088518;28;20196;-71
2021/12/06 06:02:49;;;;;;;55.77;29.67;;;;;;;5.30;100.00;93714.25;5090037;28;20296;-71
2021/12/06 06:05:20;;;;;;;52.20;27.83;;;;;;;5.26;100.00;93710.50;5090046;28;20213;-71
2021/12/06 06:07:49;;;;;;;44.67;24.07;;;;;;;5.31;100.00;93713.22;5085574;28;20196;-74
2021/12/06 06:10:18;;;;;;;43.57;22.47;;;;;;;5.38;100.00;93724.28;5086719;28;20196;-72
2021/12/06 06:12:47;;;;;;;41.90;22.43;;;;;;;5.52;100.00;93717.25;5090363;28;20201;-73
2021/12/06 06:15:18;;;;;;;43.77;22.63;;;;;;;5.59;100.00;93729.09;5089608;28;20203;-71
2021/12/06 06:17:47;;;;;;;42.87;21.87;;;;;;;5.62;100.00;93731.25;5090639;28;20209;-71
2021/12/06 06:20:21;;;;;;;40.17;21.07;;;;;;;5.66;100.00;93716.13;5090623;28;20194;-71
2021/12/06 06:22:52;;;;;;;38.27;20.80;;;;;;;5.77;100.00;93718.06;5090199;28;20275;-71
2021/12/06 06:25:21;;;;;;;37.30;20.47;;;;;;;5.81;100.00;93710.66;5083260;28;20642;-71
2021/12/06 06:27:57;;;;;;;37.10;19.10;;;;;;;5.88;100.00;93701.13;5088384;28;20540;-71
2021/12/06 06:30:29;;;;;;;36.63;18.30;;;;;;;6.08;100.00;93697.34;5086156;28;20202;-71
2021/12/06 06:33:01;;;;;;;32.67;19.20;;;;;;;6.18;100.00;93728.59;5090376;28;20198;-73
2021/12/06 06:35:32;;;;;;;31.63;18.20;;;;;;;6.23;100.00;93736.47;5089406;28;20213;-72
2021/12/06 06:38:01;;;;;;;35.03;18.70;;;;;;;6.31;100.00;93747.53;5090834;28;20207;-72
2021/12/06 06:40:31;;;;;;;31.47;17.57;;;;;;;6.41;100.00;93746.00;5091020;28;20203;-73
2021/12/06 06:43:00;;;;;;;32.10;18.37;;;;;;;6.50;100.00;93737.00;5090714;28;20223;-73
2021/12/06 06:45:30;;;;;;;29.30;17.13;;;;;;;6.58;100.00;93741.09;5091251;28;20214;-71
2021/12/06 06:47:58;;;;;;;34.97;18.60;;;;;;;6.66;100.00;93739.00;5091509;28;20198;-73
2021/12/06 06:50:34;;;;;;;32.70;18.00;;;;;;;6.74;100.00;93743.06;5091079;28;20215;-76
2021/12/06 06:53:03;;;;;;;30.30;16.60;;;;;;;6.77;100.00;93750.38;5078962;28;20791;-79
2021/12/06 06:55:32;;;;;;;28.80;16.67;;;;;;;6.85;100.00;93763.78;5090681;28;20207;-78
2021/12/06 06:58:00;;;;;;;27.33;15.77;;;;;;;6.94;100.00;93750.56;5091016;28;20298;-77
2021/12/06 07:00:34;;;;;;;31.53;17.53;;;;;;;7.03;100.00;93760.41;5082563;28;20204;-77
2021/12/06 07:03:03;;;;;;;26.50;15.50;;;;;;;7.07;100.00;93761.53;5090515;28;20301;-76
2021/12/06 07:05:35;;;;;;;27.27;15.03;;;;;;;7.09;100.00;93740.66;5091507;28;20204;-76
2021/12/06 07:08:04;;;;;;;25.23;13.83;;;;;;;7.05;100.00;93752.41;5091234;28;20294;-76
2021/12/06 07:10:32;;;;;;;25.57;14.57;;;;;;;7.16;100.00;93736.97;5091364;28;20695;-78
2021/12/06 07:13:04;;;;;;;25.00;13.57;;;;;;;7.22;100.00;93751.59;5091371;28;20283;-77
2021/12/06 07:15:37;;;;;;;25.13;13.93;;;;;;;7.29;100.00;93756.69;5091044;28;20204;-78
2021/12/06 07:18:06;;;;;;;24.50;13.00;;;;;;;7.34;100.00;93744.69;5091422;28;20279;-75
2021/12/06 07:20:36;;;;;;;21.83;13.17;;;;;;;7.30;100.00;93725.44;5090736;28;20211;-75
2021/12/06 07:23:05;;;;;;;25.67;12.80;;;;;;;7.47;100.00;93732.56;5090530;28;20227;-75
2021/12/06 07:25:43;;;;;;;22.67;12.47;;;;;;;7.41;100.00;93729.09;5091318;28;20385;-76
2021/12/06 07:28:13;;;;;;;22.80;13.33;;;;;;;7.41;100.00;93723.91;5083977;28;20198;-75
2021/12/06 07:30:44;;;;;;;22.97;13.57;;;;;;;7.37;100.00;93741.66;5091106;28;20220;-76
2021/12/06 07:33:13;;;;;;;24.13;13.33;;;;;;;7.34;100.00;93747.25;5091175;28;20305;-75
2021/12/06 07:35:42;;;;;;;23.23;12.47;;;;;;;7.40;100.00;93756.72;5090639;28;20207;-75
2021/12/06 07:38:10;;;;;;;21.97;12.70;;;;;;;7.50;100.00;93745.84;5091198;28;20208;-76
2021/12/06 07:40:42;;;;;;;22.53;12.70;;;;;;;7.46;100.00;93742.13;5090562;28;20942;-76
2021/12/06 07:43:11;;;;;;;21.80;11.87;;;;;;;7.48;100.00;93752.22;5090341;28;20667;-76
2021/12/06 07:45:40;;;;;;;22.60;12.97;;;;;;;7.46;100.00;93752.47;5090987;28;20208;-80
2021/12/06 07:48:17;;;;;;;19.77;11.33;;;;;;;7.45;100.00;93774.13;5091025;28;20206;-80
2021/12/06 07:50:46;;;;;;;22.70;11.97;;;;;;;7.44;100.00;93757.06;5091075;28;20268;-78
2021/12/06 07:53:16;;;;;;;19.90;11.70;;;;;;;7.42;100.00;93752.09;5090793;28;20319;-79
2021/12/06 07:55:46;;;;;;;17.37;11.20;;;;;;;7.38;100.00;93743.25;5091308;28;20206;-83
2021/12/06 07:58:13;;;;;;;21.97;11.97;;;;;;;7.35;100.00;93745.47;5083850;28;20683;-82
2021/12/06 08:00:44;;;;;;;18.80;10.87;;;;;;;7.20;100.00;93720.03;5090395;28;20542;-76
2021/12/06 08:03:12;;;;;;;19.87;11.27;;;;;;;7.38;100.00;93725.16;5090188;28;20220;-77
2021/12/06 08:05:42;;;;;;;17.97;10.53;;;;;;;7.31;100.00;93715.91;5082952;28;20291;-77
2021/12/06 08:08:13;;;;;;;20.40;11.67;;;;;;;7.35;100.00;93724.78;5089580;28;20200;-79
2021/12/06 08:10:45;;;;;;;17.10;10.47;;;;;;;7.29;100.00;93741.19;5090047;28;20647;-77
2021/12/06 08:13:14;;;;;;;20.07;11.60;;;;;;;7.34;100.00;93744.69;5089885;28;20275;-76
2021/12/06 08:15:43;;;;;;;21.33;10.87;;;;;;;7.37;100.00;93758.94;5089512;28;20337;-75
2021/12/06 08:18:12;;;;;;;21.37;11.73;;;;;;;7.43;100.00;93763.25;5089932;28;20651;-76
2021/12/06 08:20:48;;;;;;;19.50;11.53;;;;;;;7.35;100.00;93746.25;5089608;28;20201;-76
2021/12/06 08:23:17;;;;;;;21.63;11.57;;;;;;;7.38;100.00;93739.84;5089405;28;20231;-78
2021/12/06 08:25:50;;;;;;;21.20;11.80;;;;;;;7.39;100.00;93738.84;5089418;28;20211;-79
2021/12/06 08:28:20;;;;;;;25.07;11.47;;;;;;;7.38;100.00;93743.25;5077048;28;20204;-79
2021/12/06 08:30:53;;;;;;;24.23;12.40;;;;;;;7.44;100.00;93749.31;5083740;28;20236;-78
2021/12/06 08:33:24;;;;;;;18.97;11.40;;;;;;;7.51;100.00;93738.88;5090346;28;20203;-79
2021/12/06 08:35:55;;;;;;;19.93;11.93;;;;;;;7.61;100.00;93734.75;5089933;28;20214;-79
2021/12/06 08:38:27;;;;;;;19.50;11.20;;;;;;;7.71;100.00;93732.38;5090492;28;20839;-78
2021/12/06 08:41:04;;;;;;;18.57;11.10;;;;;;;7.89;100.00;93734.88;5089598;28;20219;-79
2021/12/06 08:43:33;;;;;;;17.07;10.33;;;;;;;8.09;100.00;93721.63;5089632;28;20270;-78
2021/12/06 08:46:06;;;;;;;19.17;11.00;;;;;;;8.17;100.00;93726.44;5083378;28;20200;-78
2021/12/06 08:48:40;;;;;;;19.43;11.53;;;;;;;8.31;100.00;93735.59;5090078;28;20251;-79
2021/12/06 08:51:11;;;;;;;18.60;10.30;;;;;;;8.39;100.00;93731.88;5089892;28;20226;-78
2021/12/06 08:53:41;;;;;;;19.63;12.10;;;;;;;8.46;100.00;93727.34;5089840;28;20240;-78
2021/12/06 08:56:11;;;;;;;16.43;9.53;;;;;;;8.42;100.00;93729.63;5077295;28;20217;-79
2021/12/06 08:58:40;;;;;;;17.70;9.97;;;;;;;8.54;100.00;93737.38;5083135;28;20201;-79
2021/12/06 09:01:11;;;;;;;18.83;9.53;;;;;;;8.57;100.00;93742.09;5087975;28;20219;-79
2021/12/06 09:03:43;;;;;;;13.63;8.93;;;;;;;8.64;100.00;93726.41;5089710;28;20274;-78
2021/12/06 09:06:13;;;;;;;15.40;9.20;;;;;;;8.69;100.00;93721.34;5089843;28;20280;-79
2021/12/06 09:08:44;;;;;;;15.37;9.00;;;;;;;8.77;100.00;93737.34;5089899;28;20211;-79
2021/12/06 09:11:14;;;;;;;13.90;8.27;;;;;;;8.77;100.00;93734.75;5090120;28;20219;-79
2021/12/06 09:13:44;;;;;;;13.07;8.27;;;;;;;8.87;100.00;93737.53;5089969;28;20200;-79
2021/12/06 09:16:14;;;;;;;12.00;8.07;;;;;;;8.95;100.00;93723.41;5089749;28;20651;-78
2021/12/06 09:18:47;;;;;;;13.67;8.20;;;;;;;9.02;100.00;93722.28;5092289;28;20273;-79
2021/12/06 09:21:20;;;;;;;12.60;7.93;;;;;;;9.07;100.00;93716.38;5093256;28;20247;-78
2021/12/06 09:23:48;;;;;;;12.43;7.57;;;;;;;9.25;100.00;93716.19;5093134;28;20243;-79
2021/12/06 09:26:17;;;;;;;11.50;7.50;;;;;;;9.29;100.00;93713.94;5093532;28;20200;-78
2021/12/06 09:28:47;;;;;;;10.57;7.60;;;;;;;9.22;100.00;93708.09;5092653;28;20652;-79
2021/12/06 09:31:18;;;;;;;16.23;8.50;;;;;;;9.35;100.00;93718.19;5087954;28;20196;-79
2021/12/06 09:33:49;;;;;;;9.50;6.50;;;;;;;9.31;100.00;93725.63;5093719;28;20254;-78
2021/12/06 09:36:19;;;;;;;9.70;6.77;;;;;;;9.11;100.00;93728.66;5093422;28;20240;-79
2021/12/06 09:38:50;;;;;;;11.70;7.90;;;;;;;8.99;100.00;93730.50;5086210;28;20649;-78
2021/12/06 09:41:23;;;;;;;15.43;8.03;;;;;;;8.97;100.00;93695.47;5093115;28;20208;-78
2021/12/06 09:43:53;;;;;;;11.33;6.97;;;;;;;9.00;100.00;93715.75;5093157;28;20258;-79
2021/12/06 09:46:23;;;;;;;9.93;7.00;;;;;;;8.99;100.00;93708.97;5093163;28;20702;-78
2021/12/06 09:48:58;;;;;;;10.00;6.70;;;;;;;8.97;100.00;93717.00;5086902;28;20291;-79
2021/12/06 09:51:28;;;;;;;12.30;7.20;;;;;;;8.96;100.00;93702.47;5092919;28;20673;-78
2021/12/06 09:54:03;;;;;;;10.93;7.40;;;;;;;9.01;100.00;93694.78;5092955;28;20337;-76
2021/12/06 09:56:35;;;;;;;10.73;6.80;;;;;;;9.06;100.00;93686.31;5092835;28;20193;-79
2021/12/06 09:59:18;;;;;;;11.93;8.07;;;;;;;9.15;100.00;93682.31;5092805;28;20193;-78
2021/12/06 10:01:53;;;;;;;12.27;7.80;;;;;;;9.26;100.00;93673.72;5086557;28;20719;-78
2021/12/06 10:04:28;;;;;;;12.13;7.73;;;;;;;9.45;100.00;93676.88;5091685;28;20195;-78
2021/12/06 10:07:04;;;;;;;11.60;7.83;;;;;;;9.69;100.00;93657.53;5086513;28;20200;-79
2021/12/06 10:09:38;;;;;;;18.23;8.20;;;;;;;9.87;100.00;93636.50;5092702;28;20196;-78
2021/12/06 10:12:09;;;;;;;14.57;8.23;;;;;;;9.91;100.00;93665.38;5092581;28;20193;-78
2021/12/06 10:14:42;;;;;;;15.97;8.97;;;;;;;9.83;100.00;93640.63;5085815;28;20238;-78
2021/12/06 10:17:11;;;;;;;14.33;9.10;;;;;;;9.85;100.00;93643.75;5092198;28;20580;-78
2021/12/06 10:19:42;;;;;;;17.50;10.40;;;;;;;9.98;100.00;93647.84;5092489;28;20204;-79
2021/12/06 10:22:15;;;;;;;16.73;10.27;;;;;;;9.90;100.00;93656.78;5092346;28;20198;-78
2021/12/06 10:24:54;;;;;;;14.97;9.80;;;;;;;9.91;100.00;93629.84;5092595;28;20193;-77
2021/12/06 10:27:24;;;;;;;15.40;9.40;;;;;;;9.84;100.00;93636.22;5085215;28;20200;-78
2021/12/06 10:29:54;;;;;;;14.67;9.40;;;;;;;9.93;100.00;93638.16;5092012;28;20204;-78
2021/12/06 10:32:26;;;;;;;15.83;10.03;;;;;;;9.94;100.00;93616.38;5092188;28;20204;-78
2021/12/06 10:35:02;;;;;;;16.60;10.07;;;;;;;9.95;100.00;93604.19;5085047;28;20711;-78
2021/12/06 10:37:45;;;;;;;16.70;10.17;;;;;;;10.06;100.00;93605.91;5091813;28;20603;-79
2021/12/06 10:40:20;;;;;;;17.37;10.43;;;;;;;10.03;100.00;93620.13;5085374;28;20201;-78
2021/12/06 10:42:51;;;;;;;18.80;11.53;;;;;;;10.02;100.00;93603.00;5091270;28;20234;-78
2021/12/06 10:45:24;;;;;;;17.07;10.77;;;;;;;10.05;100.00;93602.50;5091947;28;20200;-79
2021/12/06 10:48:16;;;;;;;16.37;10.30;;;;;;;9.96;100.00;93611.72;5078345;28;20197;-79
2021/12/06 10:51:00;;;;;;;19.33;10.97;;;;;;;9.96;100.00;93614.31;5087188;28;20204;-78
2021/12/06 10:53:36;;;;;;;18.83;11.77;;;;;;;9.94;100.00;93618.19;5091349;28;20239;-78
2021/12/06 10:56:14;;;;;;;21.40;11.80;;;;;;;9.95;100.00;93609.38;5085107;28;20666;-79
2021/12/06 10:58:48;;;;;;;20.27;11.57;;;;;;;9.97;100.00;93623.69;5084832;28;20279;-79
2021/12/06 11:01:19;;;;;;;22.40;11.67;;;;;;;9.97;100.00;93628.88;5089244;28;20200;-79
2021/12/06 11:03:51;;;;;;;20.90;12.23;;;;;;;10.01;100.00;93616.22;5090786;28;20212;-79
2021/12/06 11:06:29;;;;;;;20.57;12.47;;;;;;;9.98;100.00;93617.50;5085207;28;20208;-79
2021/12/06 11:09:05;;;;;;;18.00;11.73;;;;;;;10.03;100.00;93614.94;5087794;28;20265;-79
2021/12/06 11:11:40;;;;;;;18.70;11.93;;;;;;;10.12;100.00;93623.09;5091317;28;20246;-79
2021/12/06 11:14:15;;;;;;;18.57;11.83;;;;;;;10.10;100.00;93627.75;5091164;28;20210;-78
2021/12/06 11:16:49;;;;;;;19.50;12.33;;;;;;;10.00;100.00;93638.00;5091116;28;20189;-78
2021/12/06 11:19:22;;;;;;;22.10;12.80;;;;;;;10.03;100.00;93629.72;5084749;28;20200;-78
2021/12/06 11:21:54;;;;;;;20.13;12.40;;;;;;;9.88;100.00;93606.16;5091035;28;20212;-79
2021/12/06 11:24:24;;;;;;;19.43;11.67;;;;;;;9.93;100.00;93616.59;5091561;28;20219;-78
2021/12/06 11:27:00;;;;;;;17.77;11.67;;;;;;;9.89;100.00;93611.13;5089557;28;20743;-78
2021/12/06 11:29:33;;;;;;;20.50;12.40;;;;;;;9.89;100.00;93607.75;5080876;28;20255;-79
2021/12/06 11:32:07;;;;;;;20.17;12.50;;;;;;;9.90;100.00;93606.72;5091112;28;20208;-78
2021/12/06 11:34:43;;;;;;;19.10;11.90;;;;;;;9.84;100.00;93592.13;5084409;28;20271;-79
2021/12/06 11:37:18;;;;;;;19.30;11.87;;;;;;;9.96;100.00;93609.13;5083957;28;20200;-79
2021/12/06 11:39:50;;;;;;;20.10;11.77;;;;;;;9.86;100.00;93598.63;5090706;28;20200;-78
2021/12/06 11:42:19;;;;;;;19.47;12.87;;;;;;;9.88;100.00;93598.38;5090450;28;20212;-79
2021/12/06 11:44:49;;;;;;;23.67;14.03;;;;;;;10.04;100.00;93589.78;5091045;28;20201;-78